Latest Weather Observations for Kingscote

IDS60801

Issued at 3:31 pm CDT Saturday 10 December 2022 (issued every 10 minutes, with the page automatically refreshed every 10 minutes)

About weather observations | Map of weather stations | Latest weather observations for SA | Other Formats
Station Details ID: 022841 Name: KINGSCOTE AERO Lat: -35.71 Lon: 137.52 Height: 6.23 m
Data from the previous 72 hours. | See also: Recent months at Kingscote
Date/Time
CDT
Temp
°C
App
Temp
°C
Dew
Point
°C
Rel
Hum
%
Delta-T
°C
Wind Press
QNH
hPa
Press
MSL
hPa
Rain since
9am
mm
Dir  Spd
km/h
Gust
km/h
Spd
kts
Gust
kts
10/03:30pm 30.9 27.8 10.3 28 11.8 ESE 17 26 9 14 1005.4 1005.4 0.0
10/03:00pm 30.1 25.7 9.1 27 11.7 E 22 32 12 17 1005.7 1005.7 0.0
10/02:30pm 29.5 25.5 10.6 31 10.8 E 22 30 12 16 1006.4 1006.4 0.0
10/02:00pm 29.9 26.2 9.4 28 11.5 NE 19 28 10 15 1006.7 1006.7 0.0
10/01:30pm 28.4 23.3 7.6 27 11.2 NE 24 30 13 16 1007.2 1007.2 0.0
10/01:00pm 27.3 23.0 7.7 29 10.5 NNE 20 32 11 17 1007.6 1007.6 0.0
10/12:30pm 26.7 22.7 10.4 36 9.1 NE 22 30 12 16 1007.9 1007.9 0.0
10/12:00pm 25.9 21.3 8.0 32 9.6 NNE 22 28 12 15 1008.3 1008.3 0.0
10/11:30am 25.6 21.0 9.8 37 8.7 NE 24 32 13 17 1008.6 1008.6 0.0
10/11:00am 24.6 20.9 10.1 40 8.0 NNE 20 26 11 14 1009.1 1009.1 0.0
10/10:30am 22.4 18.7 10.2 46 6.7 NE 20 28 11 15 1009.5 1009.5 0.0
10/10:00am 22.7 19.2 10.8 47 6.6 NE 20 28 11 15 1009.7 1009.7 0.0
10/09:30am 21.5 18.0 10.9 51 5.8 NE 20 26 11 14 1010.0 1010.0 0.0
10/09:00am 22.0 19.0 12.0 53 5.6 NE 19 24 10 13 1010.1 1010.1 0.0
10/08:30am 19.8 17.9 11.8 60 4.4 NNE 13 19 7 10 1010.3 1010.3 0.0
10/08:00am 19.2 16.8 11.5 61 4.2 NNE 15 20 8 11 1010.0 1010.0 0.0
10/07:30am 18.9 16.8 11.2 61 4.2 NNE 13 22 7 12 1010.3 1010.3 0.0
10/07:00am 16.4 14.8 12.9 80 1.9 NE 13 19 7 10 1010.0 1010.0 0.0
10/06:58am 16.0 14.9 13.1 83 1.6 NE 11 19 6 10 1010.0 1010.0 0.0
10/06:30am 10.8 10.8 9.9 94 0.5 CALM 0 6 0 3 1010.2 1010.2 0.0
10/06:00am 9.7 8.2 8.6 93 0.5 SSW 6 7 3 4 1010.2 1010.2 0.0
10/05:30am 9.6 8.2 8.7 94 0.4 SW 6 9 3 5 1010.3 1010.3 0.0
10/05:00am 9.4 8.7 8.5 94 0.4 SSW 2 6 1 3 1010.3 1010.3 0.0
10/04:30am 9.4 7.9 8.5 94 0.4 SSW 6 7 3 4 1010.4 1010.4 0.0
10/04:00am 9.0 7.2 7.9 93 0.5 W 7 9 4 5 1010.4 1010.4 0.0
10/03:30am 9.2 8.7 8.0 92 0.6 CALM 0 0 0 0 1010.3 1010.3 0.0
10/03:00am 9.8 8.2 8.9 94 0.4 W 7 9 4 5 1010.7 1010.7 0.0
10/02:30am 9.5 7.8 8.3 92 0.6 WSW 7 9 4 5 1010.8 1010.8 0.0
10/02:00am 10.0 8.5 8.6 91 0.7 WSW 6 7 3 4 1011.1 1011.1 0.0
10/01:30am 10.3 8.7 8.6 89 0.8 WSW 7 7 4 4 1011.6 1011.6 0.0
10/01:00am 11.2 9.9 9.3 88 1.0 WSW 6 7 3 4 1011.9 1011.9 0.0
10/12:30am 10.9 9.4 9.0 88 0.9 SW 7 9 4 5 1012.2 1012.2 0.0
10/12:00am 11.3 9.8 9.2 87 1.0 SSW 7 7 4 4 1012.4 1012.4 0.0
 
Date/Time
CDT
Temp
°C
App
Temp
°C
Dew
Point
°C
Rel
Hum
%
Delta-T
°C
Wind Press
QNH
hPa
Press
MSL
hPa
Rain since
9am
mm
Dir  Spd
km/h
Gust
km/h
Spd
kts
Gust
kts
09/11:30pm 11.7 10.5 9.4 86 1.2 S 6 9 3 5 1012.8 1012.8 0.0
09/11:00pm 12.6 11.0 10.1 85 1.3 S 9 11 5 6 1013.0 1013.0 0.0
09/10:30pm 13.1 11.6 10.5 84 1.4 S 9 11 5 6 1013.2 1013.2 0.0
09/10:00pm 13.8 12.4 10.8 82 1.6 SSE 9 13 5 7 1013.2 1013.2 0.0
09/09:30pm 14.6 13.2 10.8 78 2.0 SSE 9 13 5 7 1013.1 1013.1 0.0
09/09:00pm 15.4 13.6 10.8 74 2.4 SE 11 13 6 7 1013.0 1013.0 0.0
09/08:30pm 16.8 14.6 10.9 68 3.2 SE 13 15 7 8 1012.9 1012.9 0.0
09/08:00pm 19.1 16.3 11.4 61 4.2 E 17 24 9 13 1012.6 1012.6 0.0
09/07:30pm 19.7 16.3 11.2 58 4.7 E 20 26 11 14 1012.5 1012.5 0.0
09/07:00pm 20.4 16.6 9.9 51 5.6 E 20 26 11 14 1012.6 1012.6 0.0
09/06:30pm 21.0 17.1 9.3 47 6.2 ENE 20 26 11 14 1012.6 1012.6 0.0
09/06:00pm 20.7 16.1 8.0 44 6.6 E 22 28 12 15 1012.5 1012.5 0.0
09/05:30pm 21.1 16.8 9.4 47 6.2 E 22 28 12 15 1012.6 1012.6 0.0
09/05:00pm 20.8 15.9 10.0 50 5.8 E 26 32 14 17 1012.9 1012.9 0.0
09/04:30pm 21.3 16.7 9.5 47 6.3 E 24 32 13 17 1013.2 1013.2 0.0
09/04:00pm 21.6 17.4 9.8 47 6.4 ENE 22 28 12 15 1013.7 1013.7 0.0
09/03:30pm 21.2 17.5 10.1 49 6.0 ENE 20 28 11 15 1014.0 1014.0 0.0
09/03:00pm 20.9 16.3 9.5 48 6.1 E 24 32 13 17 1014.3 1014.3 0.0
09/02:30pm 20.8 15.4 8.1 44 6.6 ENE 26 35 14 19 1014.5 1014.5 0.0
09/02:00pm 20.1 15.9 9.7 51 5.6 ENE 22 32 12 17 1015.0 1015.0 0.0
09/01:30pm 19.5 15.1 9.1 51 5.5 ENE 22 30 12 16 1015.2 1015.2 0.0
09/01:00pm 20.3 16.6 10.1 52 5.5 NE 20 30 11 16 1015.3 1015.3 0.0
09/12:30pm 19.5 16.2 9.4 52 5.3 NNE 17 28 9 15 1016.0 1016.0 0.0
09/12:00pm 19.1 15.0 7.8 48 5.8 NNE 19 28 10 15 1016.2 1016.2 0.0
09/11:30am 19.0 15.1 8.6 51 5.4 NE 19 28 10 15 1016.4 1016.4 0.0
09/11:00am 17.5 13.2 9.2 58 4.3 NE 22 32 12 17 1016.8 1016.8 0.0
09/10:30am 17.3 12.5 9.0 58 4.3 ENE 24 32 13 17 1016.7 1016.7 0.0
09/10:00am 16.1 11.2 8.6 61 3.8 ENE 24 32 13 17 1016.7 1016.7 0.0
09/09:30am 15.3 10.0 8.3 63 3.5 ENE 26 32 14 17 1016.9 1016.9 0.0
09/09:00am 15.5 10.7 8.7 64 3.5 ENE 24 32 13 17 1017.3 1017.3 0.0
09/08:30am 15.6 9.7 9.1 65 3.3 ENE 30 39 16 21 1017.4 1017.4 0.0
09/08:00am 14.9 9.1 7.9 63 3.5 ENE 28 39 15 21 1017.4 1017.4 0.0
09/07:30am 14.5 9.6 8.5 67 3.0 E 24 33 13 18 1017.7 1017.7 0.0
09/07:00am 13.9 8.9 8.1 68 2.9 E 24 33 13 18 1017.5 1017.5 0.0
09/06:30am 13.6 8.6 8.2 70 2.7 E 24 32 13 17 1016.9 1016.9 0.0
09/06:00am 13.7 9.2 8.7 72 2.5 E 22 30 12 16 1016.5 1016.5 0.0
09/05:30am 13.3 9.2 8.6 73 2.3 ESE 20 28 11 15 1016.1 1016.1 0.0
09/05:00am 12.9 9.2 8.0 72 2.4 SE 17 20 9 11 1015.9 1015.9 0.0
09/04:30am 12.5 8.7 7.6 72 2.4 SSE 17 20 9 11 1016.2 1016.2 0.0
09/04:00am 12.9 9.5 7.6 70 2.6 SE 15 20 8 11 1016.0 1016.0 0.0
09/03:30am 12.8 8.6 7.5 70 2.6 ESE 19 24 10 13 1015.2 1015.2 0.0
09/03:00am 12.9 9.2 7.8 71 2.5 ESE 17 22 9 12 1015.9 1015.9 0.0
09/02:30am 12.7 8.5 7.4 70 2.6 ESE 19 24 10 13 1015.9 1015.9 0.0
09/02:00am 12.8 8.4 7.5 70 2.6 ESE 20 28 11 15 1016.3 1016.3 0.0
09/01:30am 12.6 8.8 7.7 72 2.4 ESE 17 22 9 12 1017.1 1017.1 0.0
09/01:00am 12.0 9.2 7.1 72 2.4 ESE 11 13 6 7 1017.6 1017.6 0.0
09/12:30am 11.9 9.5 7.0 72 2.3 ESE 9 11 5 6 1018.2 1018.2 0.0
09/12:00am 12.2 9.4 6.9 70 2.5 ESE 11 15 6 8 1018.3 1018.3 0.0
 
Date/Time
CDT
Temp
°C
App
Temp
°C
Dew
Point
°C
Rel
Hum
%
Delta-T
°C
Wind Press
QNH
hPa
Press
MSL
hPa
Rain since
9am
mm
Dir  Spd
km/h
Gust
km/h
Spd
kts
Gust
kts
08/11:30pm 12.7 9.5 7.0 68 2.7 ESE 13 15 7 8 1018.5 1018.5 0.0
08/11:00pm 12.9 9.7 6.9 67 2.9 SE 13 17 7 9 1019.0 1019.0 0.0
08/10:30pm 13.4 10.7 7.4 67 2.9 SE 11 15 6 8 1019.3 1019.3 0.0
08/10:00pm 13.6 10.9 7.4 66 3.0 SSE 11 13 6 7 1019.8 1019.8 0.0
08/09:30pm 13.8 11.5 7.6 66 3.0 SSE 9 13 5 7 1019.7 1019.7 0.0
08/09:00pm 13.8 11.5 7.6 66 3.0 SSE 9 13 5 7 1019.7 1019.7 0.0
08/08:30pm 13.6 11.1 6.7 63 3.3 SE 9 11 5 6 1019.3 1019.3 0.0
08/08:00pm 13.9 10.2 6.5 61 3.6 SSE 15 19 8 10 1019.3 1019.3 0.0
08/07:30pm 14.3 10.2 6.4 59 3.8 SE 17 20 9 11 1019.0 1019.0 0.0
08/07:00pm 15.1 10.8 7.2 59 3.9 SE 19 24 10 13 1018.2 1018.2 0.0
08/06:30pm 15.1 9.8 6.7 57 4.1 SSE 24 35 13 19 1017.6 1017.6 0.0
08/06:00pm 15.9 10.1 6.1 52 4.7 SE 26 35 14 19 1017.0 1017.0 0.0
08/05:30pm 16.8 10.6 6.3 50 5.1 SE 28 35 15 19 1017.4 1017.4 0.0
08/05:00pm 17.3 10.8 6.5 49 5.3 SE 30 39 16 21 1017.4 1017.4 0.0
08/04:30pm 17.5 11.8 6.7 49 5.3 SSE 26 41 14 22 1017.7 1017.7 0.0
08/04:00pm 18.3 12.7 5.5 43 6.2 SSE 24 39 13 21 1018.3 1018.3 0.0
08/03:30pm 18.9 14.4 6.1 43 6.3 S 19 30 10 16 1019.1 1019.1 0.0
08/03:00pm 17.4 13.2 5.7 46 5.7 SSE 17 30 9 16 1019.3 1019.3 0.0
08/02:30pm 17.3 14.5 7.1 51 5.1 S 11 22 6 12 1019.7 1019.7 0.0
08/02:00pm 17.0 13.5 7.1 52 4.9 SE 15 24 8 13 1019.8 1019.8 0.0
08/01:30pm 17.2 11.6 7.0 51 5.1 SSE 26 35 14 19 1019.8 1019.8 0.0
08/01:00pm 18.1 13.4 5.3 43 6.2 SSE 19 33 10 18 1019.6 1019.6 0.0
08/12:30pm 18.2 12.8 4.7 41 6.4 SSE 22 37 12 20 1019.5 1019.5 0.0
08/12:00pm 17.4 12.3 4.0 41 6.3 SSE 20 30 11 16 1019.7 1019.7 0.0
08/11:30am 16.9 11.4 3.9 42 6.0 S 22 33 12 18 1019.8 1019.8 0.0
08/11:00am 16.0 11.3 5.3 49 5.1 SSW 19 32 10 17 1020.0 1020.0 0.0
08/10:30am 15.8 10.7 4.2 46 5.4 S 20 32 11 17 1020.0 1020.0 0.0
08/10:00am 16.6 11.6 4.6 45 5.7 SSW 20 30 11 16 1020.1 1020.1 0.0
08/09:30am 15.5 10.6 5.1 50 4.9 SSW 20 28 11 15 1020.0 1020.0 0.0
08/09:00am 15.8 10.1 5.1 49 5.1 SSW 24 30 13 16 1020.1 1020.1 0.0
08/08:30am 15.1 10.0 6.1 55 4.3 S 22 32 12 17 1019.8 1019.8 0.0
08/08:00am 12.5 10.3 7.8 73 2.3 WSW 9 11 5 6 1019.7 1019.7 0.0
08/07:30am 9.7 7.5 6.4 80 1.5 WSW 7 9 4 5 1019.3 1019.3 0.0
08/07:00am 8.7 6.5 6.0 83 1.2 W 7 7 4 4 1019.0 1019.0 0.0
08/06:30am 6.3 3.9 4.5 88 0.8 W 6 6 3 3 1018.7 1018.7 0.0
08/06:00am 5.8 3.2 4.1 89 0.7 W 7 7 4 4 1018.5 1018.5 0.0
08/05:30am 6.5 4.3 5.1 91 0.6 W 6 7 3 4 1018.2 1018.2 0.0
08/05:00am 5.2 2.5 3.7 90 0.6 W 7 9 4 5 1017.8 1017.8 0.0
08/04:30am 5.8 3.2 4.1 89 0.7 WNW 7 9 4 5 1017.7 1017.7 0.0
08/04:00am 6.8 4.6 5.1 89 0.7 WNW 6 7 3 4 1017.7 1017.7 0.0
08/03:30am 6.4 3.9 5.0 91 0.6 WNW 7 9 4 5 1017.8 1017.8 0.0
08/03:00am 5.5 2.8 3.7 88 0.8 WNW 7 7 4 4 1017.9 1017.9 0.0
08/02:30am 5.8 2.8 4.0 88 0.8 WNW 9 9 5 5 1018.0 1018.0 0.0
08/02:00am 5.8 3.1 3.8 87 0.8 WNW 7 9 4 5 1018.1 1018.1 0.0
08/01:30am 5.9 2.8 3.7 86 0.9 W 9 11 5 6 1018.1 1018.1 0.0
08/01:00am 6.6 3.6 3.9 83 1.2 WSW 9 11 5 6 1018.3 1018.3 0.0
08/12:30am 7.6 4.6 4.0 78 1.5 WSW 9 11 5 6 1018.5 1018.5 0.0
08/12:00am 6.7 3.5 3.1 78 1.5 WSW 9 9 5 5 1018.5 1018.5 0.0
 
Date/Time
CDT
Temp
°C
App
Temp
°C
Dew
Point
°C
Rel
Hum
%
Delta-T
°C
Wind Press
QNH
hPa
Press
MSL
hPa
Rain since
9am
mm
Dir  Spd
km/h
Gust
km/h
Spd
kts
Gust
kts
07/11:30pm 8.4 5.7 3.5 71 2.1 SSW 7 7 4 4 1018.4 1018.4 0.0
07/11:00pm 8.9 5.8 3.7 70 2.3 SSW 9 11 5 6 1018.3 1018.3 0.0
07/10:30pm 9.5 6.1 3.9 68 2.4 SSW 11 13 6 7 1018.3 1018.3 0.0
07/10:00pm 10.8 6.6 4.0 63 3.0 SSW 15 17 8 9 1017.9 1017.9 0.0
07/09:30pm 11.5 7.9 5.2 65 2.9 SSW 13 17 7 9 1017.7 1017.7 0.0
07/09:00pm 12.3 7.9 5.0 61 3.3 S 17 20 9 11 1017.4 1017.4 0.0
07/08:30pm 13.0 7.4 5.2 59 3.6 S 24 32 13 17 1017.0 1017.0 0.0
07/08:00pm 13.7 7.1 4.0 52 4.4 SSW 28 39 15 21 1016.6 1016.6 0.0
07/07:30pm 14.1 7.6 4.9 54 4.3 SSW 28 37 15 20 1016.2 1016.2 0.0
07/07:00pm 15.4 9.0 5.0 50 4.9 SSW 28 41 15 22 1015.7 1015.7 0.0
07/06:30pm 15.9 8.7 4.9 48 5.2 SSW 32 43 17 23 1015.4 1015.4 0.0
07/06:00pm 16.0 8.9 5.6 50 5.0 SSW 32 46 17 25 1015.1 1015.1 0.0
07/05:42pm 16.2 9.1 5.5 49 5.1 SSW 32 50 17 27 1014.9 1014.9 0.0
07/05:30pm 17.0 9.5 6.2 49 5.3 SSW 35 46 19 25 1014.7 1014.7 0.0
07/05:00pm 16.9 9.6 5.5 47 5.5 SSW 33 44 18 24 1014.4 1014.4 0.0
07/04:30pm 17.0 9.6 6.8 51 5.0 SSW 35 48 19 26 1014.1 1014.1 0.0
07/04:02pm 18.1 11.3 9.2 56 4.7 SSW 35 54 19 29 1014.1 1014.1 0.0
07/04:00pm 16.9 9.3 7.5 54 4.7 SSW 37 54 20 29 1014.1 1014.1 0.0
07/03:57pm 16.5 9.3 7.7 56 4.4 SSW 35 54 19 29 1014.0 1014.0 0.0

Other formats

Comma delimited format used in spreadsheet applications
http://www.bom.gov.au/fwo/IDS60801/IDS60801.95807.axf

JavaScript Object Notation format (JSON) in row-major order
http://www.bom.gov.au/fwo/IDS60801/IDS60801.95807.json

Data quality

Most of these data are generated automatically and are frequently updated. Quality checks on data are not normally performed. It is possible for incorrect values to appear. Refer to information at About Latest Weather Observations and please check the disclaimer before using these data.